createdAt,value
2022-09-16T00:01:23.289Z,1.73
2022-09-16T00:03:58.445Z,2.90
2022-09-16T00:06:33.049Z,1.83
2022-09-16T00:09:06.510Z,1.50
2022-09-16T00:11:36.862Z,1.47
2022-09-16T00:14:07.185Z,1.83
2022-09-16T00:16:37.202Z,1.53
2022-09-16T00:19:06.249Z,1.30
2022-09-16T00:21:36.592Z,1.50
2022-09-16T00:24:15.178Z,1.73
2022-09-16T00:26:44.948Z,2.40
2022-09-16T00:29:12.818Z,2.13
2022-09-16T00:31:40.485Z,1.47
2022-09-16T00:34:08.171Z,2.03
2022-09-16T00:36:35.823Z,2.10
2022-09-16T00:39:03.666Z,1.90
2022-09-16T00:41:33.381Z,2.10
2022-09-16T00:44:46.540Z,1.87
2022-09-16T00:47:41.562Z,1.70
2022-09-16T00:50:33.263Z,1.80
2022-09-16T00:53:01.970Z,2.40
2022-09-16T00:55:37.983Z,1.97
2022-09-16T00:59:02.178Z,2.30
2022-09-16T01:01:32.830Z,2.23
2022-09-16T01:04:26.345Z,2.30
2022-09-16T01:06:56.217Z,2.60
2022-09-16T01:09:27.923Z,1.90
2022-09-16T01:11:56.019Z,2.00
2022-09-16T01:14:46.769Z,2.50
2022-09-16T01:17:29.352Z,2.27
2022-09-16T01:20:49.211Z,2.17
2022-09-16T01:23:41.207Z,1.87
2022-09-16T01:26:45.833Z,2.33
2022-09-16T01:29:58.969Z,2.07
2022-09-16T01:33:16.455Z,2.37
2022-09-16T01:36:51.412Z,2.10
2022-09-16T01:40:10.914Z,2.40
2022-09-16T01:43:21.988Z,2.73
2022-09-16T01:46:09.507Z,1.90
2022-09-16T01:49:16.400Z,2.03
2022-09-16T01:52:31.087Z,2.10
2022-09-16T01:55:24.944Z,1.63
2022-09-16T01:58:05.567Z,1.90
2022-09-16T02:00:34.735Z,1.70
2022-09-16T02:03:34.680Z,1.67
2022-09-16T02:06:21.267Z,1.77
2022-09-16T02:09:06.700Z,1.90
2022-09-16T02:11:38.888Z,2.30
2022-09-16T02:14:24.074Z,1.70
2022-09-16T02:17:15.326Z,2.30
2022-09-16T02:20:14.694Z,1.83
2022-09-16T02:23:11.138Z,2.47
2022-09-16T02:25:46.562Z,2.33
2022-09-16T02:28:28.032Z,1.80
2022-09-16T02:31:05.962Z,1.60
2022-09-16T02:34:07.852Z,2.00
2022-09-16T02:36:40.611Z,1.60
2022-09-16T02:39:19.259Z,1.40
2022-09-16T02:41:47.459Z,1.67
2022-09-16T02:44:16.024Z,1.57
2022-09-16T02:47:06.113Z,1.87
2022-09-16T02:50:20.565Z,1.83
2022-09-16T02:53:14.639Z,1.80
2022-09-16T02:56:06.302Z,1.50
2022-09-16T02:58:34.103Z,1.83
2022-09-16T03:01:02.556Z,1.93
2022-09-16T03:03:30.253Z,1.87
2022-09-16T03:06:09.753Z,1.93
2022-09-16T03:08:39.956Z,1.97
2022-09-16T03:12:03.923Z,2.40
2022-09-16T03:15:29.535Z,1.90
2022-09-16T03:18:48.386Z,3.10
2022-09-16T03:21:36.062Z,1.57
2022-09-16T03:25:03.573Z,1.70
2022-09-16T03:27:53.473Z,1.73
2022-09-16T03:30:21.686Z,1.63
2022-09-16T03:33:19.657Z,1.87
2022-09-16T03:35:52.570Z,2.60
2022-09-16T03:38:21.513Z,2.10
2022-09-16T03:40:50.542Z,2.10
2022-09-16T03:43:18.967Z,2.50
2022-09-16T03:45:46.656Z,1.97
2022-09-16T03:48:14.880Z,2.17
2022-09-16T03:50:42.619Z,2.27
2022-09-16T03:53:10.146Z,2.13
2022-09-16T03:55:37.904Z,1.90
2022-09-16T03:58:05.495Z,1.60
2022-09-16T04:00:33.414Z,1.83
2022-09-16T04:03:01.610Z,2.33
2022-09-16T04:05:29.432Z,1.97
2022-09-16T04:07:57.019Z,2.47
2022-09-16T04:10:25.238Z,2.00
2022-09-16T04:12:58.864Z,3.20
2022-09-16T04:15:26.765Z,3.03
2022-09-16T04:17:56.250Z,1.90
2022-09-16T04:20:24.080Z,1.80
2022-09-16T04:22:51.628Z,1.80
2022-09-16T04:25:19.202Z,2.20
2022-09-16T04:27:46.839Z,2.07
2022-09-16T04:30:14.744Z,2.57
2022-09-16T04:32:42.237Z,1.83
2022-09-16T04:35:10.232Z,2.43
2022-09-16T04:37:37.913Z,1.80
2022-09-16T04:40:06.770Z,2.13
2022-09-16T04:42:34.380Z,2.47
2022-09-16T04:45:02.067Z,2.60
2022-09-16T04:47:30.198Z,2.37
2022-09-16T04:49:58.169Z,2.20
2022-09-16T04:52:25.731Z,2.60
2022-09-16T04:54:53.269Z,1.90
2022-09-16T04:57:21.459Z,2.73
2022-09-16T04:59:49.387Z,1.70
2022-09-16T05:02:16.982Z,2.73
2022-09-16T05:04:44.565Z,2.27
2022-09-16T05:07:12.149Z,2.07
2022-09-16T05:09:39.722Z,2.30
2022-09-16T05:12:08.520Z,2.10
2022-09-16T05:14:36.160Z,2.20
2022-09-16T05:17:03.793Z,2.60
2022-09-16T05:19:31.352Z,2.30
2022-09-16T05:21:58.916Z,2.40
2022-09-16T05:24:27.033Z,2.50
2022-09-16T05:26:54.617Z,2.37
2022-09-16T05:29:22.708Z,2.60
2022-09-16T05:31:50.778Z,2.20
2022-09-16T05:34:28.756Z,3.43
2022-09-16T05:36:58.052Z,2.33
2022-09-16T05:39:26.563Z,2.23
2022-09-16T05:42:00.719Z,2.50
2022-09-16T05:44:29.676Z,2.40
2022-09-16T05:46:58.052Z,3.10
2022-09-16T05:49:25.809Z,3.10
2022-09-16T05:51:54.631Z,3.00
2022-09-16T05:54:25.442Z,3.53
2022-09-16T05:56:53.594Z,3.70
2022-09-16T05:59:23.590Z,2.83
2022-09-16T06:01:51.226Z,3.27
2022-09-16T06:04:19.026Z,2.40
2022-09-16T06:06:47.608Z,2.80
2022-09-16T06:09:25.163Z,3.20
2022-09-16T06:12:01.503Z,2.80
2022-09-16T06:14:30.495Z,2.30
2022-09-16T06:16:58.509Z,3.03
2022-09-16T06:19:26.169Z,2.70
2022-09-16T06:21:53.971Z,3.60
2022-09-16T06:24:22.233Z,3.70
2022-09-16T06:26:51.068Z,3.13
2022-09-16T06:29:19.057Z,3.33
2022-09-16T06:31:46.732Z,3.73
2022-09-16T06:34:18.857Z,2.60
2022-09-16T06:36:47.726Z,3.60
2022-09-16T06:39:17.536Z,3.30
2022-09-16T06:41:46.084Z,3.70
2022-09-16T06:44:13.789Z,3.40
2022-09-16T06:46:41.457Z,3.53
2022-09-16T06:49:11.236Z,3.87
2022-09-16T06:51:39.126Z,3.00
2022-09-16T06:54:09.186Z,3.30
2022-09-16T06:56:39.330Z,4.00
2022-09-16T06:59:08.672Z,3.20
2022-09-16T07:01:37.473Z,2.57
2022-09-16T07:04:11.147Z,3.77
2022-09-16T07:09:27.306Z,3.10
2022-09-16T07:11:55.493Z,4.63
2022-09-16T07:14:23.412Z,2.53
2022-09-16T07:16:51.519Z,3.53
2022-09-16T07:19:19.917Z,3.07
2022-09-16T07:21:47.755Z,2.93
2022-09-16T07:24:15.567Z,2.70
2022-09-16T07:26:46.632Z,2.10
2022-09-16T07:29:21.195Z,2.90
2022-09-16T07:31:51.127Z,2.50
2022-09-16T07:34:20.172Z,2.20
2022-09-16T07:36:50.406Z,2.37
2022-09-16T07:39:21.334Z,2.13
2022-09-16T07:41:49.582Z,2.00
2022-09-16T07:44:20.948Z,2.10
2022-09-16T07:46:51.327Z,1.93
2022-09-16T07:49:19.564Z,1.70
2022-09-16T07:51:47.770Z,2.03
2022-09-16T07:54:20.130Z,1.87
2022-09-16T07:56:48.940Z,2.20
2022-09-16T07:59:20.314Z,1.60
2022-09-16T08:01:50.501Z,1.30
2022-09-16T08:04:20.689Z,1.50
2022-09-16T08:06:49.344Z,1.50
2022-09-16T08:12:08.101Z,1.60
2022-09-16T08:14:36.618Z,2.63
2022-09-16T08:17:04.887Z,1.63
2022-09-16T08:19:32.550Z,1.37
2022-09-16T08:22:00.251Z,1.70
2022-09-16T08:24:27.993Z,1.60
2022-09-16T08:29:25.987Z,1.40
2022-09-16T08:31:53.601Z,1.83
2022-09-16T08:34:21.317Z,1.50
2022-09-16T08:36:48.970Z,1.30
2022-09-16T08:39:16.518Z,1.30
2022-09-16T08:42:19.889Z,1.10
2022-09-16T08:45:48.864Z,1.47
2022-09-16T08:48:48.510Z,1.03
2022-09-16T08:51:21.093Z,1.07
2022-09-16T08:54:04.232Z,1.40
2022-09-16T08:56:40.409Z,1.07
2022-09-16T08:59:27.847Z,1.07
2022-09-16T09:03:12.495Z,1.20
2022-09-16T09:06:02.124Z,1.10
2022-09-16T09:09:29.354Z,1.33
2022-09-16T09:12:34.299Z,1.47
2022-09-16T09:15:22.867Z,1.30
2022-09-16T09:19:19.652Z,1.30
2022-09-16T09:22:39.097Z,1.10
2022-09-16T09:25:57.317Z,1.10
2022-09-16T09:29:19.039Z,1.47
2022-09-16T09:32:49.130Z,1.27
2022-09-16T09:36:32.426Z,0.83
2022-09-16T09:39:43.170Z,0.90
2022-09-16T09:42:36.163Z,1.60
2022-09-16T09:45:34.952Z,1.60
2022-09-16T09:48:50.689Z,1.10
2022-09-16T09:52:12.257Z,1.30
2022-09-16T09:54:45.709Z,1.93
2022-09-16T09:58:23.447Z,1.23
2022-09-16T10:00:56.082Z,1.90
2022-09-16T10:03:26.010Z,1.70
2022-09-16T10:05:53.722Z,1.50
2022-09-16T10:08:54.180Z,1.23
2022-09-16T10:11:32.354Z,1.30
2022-09-16T10:14:05.844Z,1.17
2022-09-16T10:16:38.658Z,1.20
2022-09-16T10:19:22.698Z,1.13
2022-09-16T10:22:08.313Z,1.67
2022-09-16T10:24:42.063Z,1.23
2022-09-16T10:27:36.106Z,1.10
2022-09-16T10:33:15.591Z,1.20
2022-09-16T10:36:09.433Z,1.67
2022-09-16T10:38:42.032Z,1.37
2022-09-16T10:41:27.955Z,0.90
2022-09-16T10:44:17.140Z,1.00
2022-09-16T10:47:15.237Z,1.00
2022-09-16T10:50:05.397Z,0.90
2022-09-16T10:52:47.407Z,1.07
2022-09-16T10:55:38.065Z,0.90
2022-09-16T10:58:19.511Z,1.00
2022-09-16T11:01:14.416Z,1.40
2022-09-16T11:04:28.686Z,1.00
2022-09-16T11:08:04.910Z,0.90
2022-09-16T11:11:12.008Z,1.13
2022-09-16T11:14:46.366Z,0.80
2022-09-16T11:17:31.905Z,1.00
2022-09-16T11:20:50.365Z,1.40
2022-09-16T11:24:03.248Z,1.10
2022-09-16T11:27:27.528Z,1.33
2022-09-16T11:30:22.567Z,1.10
2022-09-16T11:33:37.053Z,1.43
2022-09-16T11:36:55.595Z,1.10
2022-09-16T11:39:47.920Z,1.40
2022-09-16T11:43:09.127Z,1.07
2022-09-16T11:45:58.566Z,1.50
2022-09-16T11:49:10.529Z,1.50
2022-09-16T11:51:59.400Z,1.60
2022-09-16T11:55:22.829Z,1.13
2022-09-16T11:58:06.607Z,1.03
2022-09-16T12:00:39.985Z,0.93
2022-09-16T12:03:35.813Z,0.97
2022-09-16T12:06:25.230Z,1.37
2022-09-16T12:09:22.687Z,1.10
2022-09-16T12:12:25.359Z,1.07
2022-09-16T12:15:20.641Z,0.90
2022-09-16T12:18:15.291Z,0.60
2022-09-16T12:21:02.981Z,1.00
2022-09-16T12:23:43.434Z,0.90
2022-09-16T12:26:37.229Z,0.77
2022-09-16T12:29:35.125Z,0.90
2022-09-16T12:32:18.078Z,1.00
2022-09-16T12:35:01.875Z,2.90
2022-09-16T12:37:48.285Z,1.40
2022-09-16T12:40:49.493Z,1.03
2022-09-16T12:44:17.026Z,1.30
2022-09-16T12:48:01.569Z,2.00
2022-09-16T12:51:48.217Z,1.00
2022-09-16T12:55:11.666Z,1.30
2022-09-16T12:58:40.068Z,1.23
2022-09-16T13:01:35.903Z,2.43
2022-09-16T13:04:22.247Z,1.30
2022-09-16T13:06:58.312Z,2.60
2022-09-16T13:09:37.489Z,1.50
2022-09-16T13:12:44.979Z,2.40
2022-09-16T13:16:00.747Z,3.30
2022-09-16T13:18:49.208Z,3.47
2022-09-16T13:21:39.768Z,4.07
2022-09-16T13:24:43.182Z,2.17
2022-09-16T13:27:41.201Z,2.50
2022-09-16T13:30:08.722Z,1.70
2022-09-16T13:33:09.563Z,2.13
2022-09-16T13:35:49.660Z,1.77
2022-09-16T13:38:20.046Z,1.70
2022-09-16T13:41:03.100Z,1.50
2022-09-16T13:43:47.628Z,1.30
2022-09-16T13:46:38.299Z,1.37
2022-09-16T13:49:06.620Z,1.30
2022-09-16T13:51:47.793Z,1.40
2022-09-16T13:55:06.421Z,1.40
2022-09-16T13:58:25.891Z,1.77
2022-09-16T14:01:37.044Z,2.10
2022-09-16T14:04:48.745Z,4.23
2022-09-16T14:08:05.681Z,3.43
2022-09-16T14:11:21.036Z,3.60
2022-09-16T14:14:15.678Z,2.03
2022-09-16T14:16:54.431Z,1.80
2022-09-16T14:19:26.823Z,3.33
2022-09-16T14:22:25.757Z,1.60
2022-09-16T14:25:05.918Z,1.47
2022-09-16T14:27:40.009Z,1.80
2022-09-16T14:30:19.431Z,1.93
2022-09-16T14:32:49.737Z,1.80
2022-09-16T14:35:29.203Z,1.90
2022-09-16T14:38:14.126Z,2.57
2022-09-16T14:40:51.659Z,2.60
2022-09-16T14:43:22.704Z,3.00
2022-09-16T14:48:42.474Z,2.13
2022-09-16T14:51:31.026Z,1.80
2022-09-16T14:54:15.917Z,2.13
2022-09-16T14:56:43.646Z,1.30
2022-09-16T14:59:15.385Z,1.07
2022-09-16T15:01:43.843Z,1.50
2022-09-16T15:04:30.046Z,1.17
2022-09-16T15:07:16.542Z,1.30
2022-09-16T15:10:16.964Z,1.20
2022-09-16T15:12:59.734Z,1.10
2022-09-16T15:15:37.585Z,1.23
2022-09-16T15:18:39.920Z,1.67
2022-09-16T15:21:28.738Z,1.80
2022-09-16T15:24:04.065Z,2.10
2022-09-16T15:26:44.848Z,1.53
2022-09-16T15:29:18.405Z,2.10
2022-09-16T15:31:48.059Z,1.87
2022-09-16T15:34:21.169Z,1.73
2022-09-16T15:36:57.616Z,2.00
2022-09-16T15:39:33.371Z,1.80
2022-09-16T15:42:22.152Z,2.33
2022-09-16T15:46:14.883Z,2.47
2022-09-16T15:49:02.475Z,1.37
2022-09-16T15:51:51.516Z,1.90
2022-09-16T15:55:03.774Z,1.60
2022-09-16T15:57:47.990Z,2.57
2022-09-16T16:00:19.585Z,2.13
2022-09-16T16:03:07.183Z,2.33
2022-09-16T16:05:39.971Z,2.20
2022-09-16T16:08:57.568Z,1.90
2022-09-16T16:11:27.318Z,2.27
2022-09-16T16:14:02.198Z,2.17
2022-09-16T16:16:31.847Z,2.90
2022-09-16T16:19:00.822Z,2.33
2022-09-16T16:21:28.933Z,2.30
2022-09-16T16:24:02.298Z,2.10
2022-09-16T16:26:30.064Z,2.70
2022-09-16T16:28:57.600Z,1.97
2022-09-16T16:31:25.305Z,1.90
2022-09-16T16:33:53.023Z,3.03
2022-09-16T16:36:23.434Z,1.90
2022-09-16T16:38:51.457Z,2.37
2022-09-16T16:41:24.819Z,2.00
2022-09-16T16:43:52.565Z,2.07
2022-09-16T16:46:20.503Z,2.97
2022-09-16T16:48:48.241Z,2.83
2022-09-16T16:51:16.027Z,3.43
2022-09-16T16:53:49.442Z,1.83
2022-09-16T16:56:17.673Z,3.03
2022-09-16T16:58:45.595Z,3.37
2022-09-16T17:01:19.774Z,2.40
2022-09-16T17:03:51.558Z,2.50
2022-09-16T17:06:19.370Z,2.27
2022-09-16T17:08:46.983Z,2.20
2022-09-16T17:11:22.376Z,3.00
2022-09-16T17:13:57.214Z,2.27
2022-09-16T17:16:27.032Z,2.90
2022-09-16T17:18:58.423Z,2.80
2022-09-16T17:21:32.515Z,2.83
2022-09-16T17:24:00.938Z,2.50
2022-09-16T17:26:29.133Z,2.50
2022-09-16T17:28:58.068Z,2.90
2022-09-16T17:31:32.504Z,3.13
2022-09-16T17:34:07.044Z,2.60
2022-09-16T17:36:46.560Z,2.87
2022-09-16T17:39:21.282Z,2.50
2022-09-16T17:41:51.244Z,3.27
2022-09-16T17:44:20.459Z,2.63
2022-09-16T17:46:48.314Z,3.07
2022-09-16T17:49:22.669Z,2.87
2022-09-16T17:51:53.613Z,2.60
2022-09-16T17:54:22.695Z,3.10
2022-09-16T17:56:50.760Z,4.23
2022-09-16T17:59:20.229Z,3.13
2022-09-16T18:01:49.195Z,4.30
2022-09-16T18:04:16.898Z,3.07
2022-09-16T18:06:47.196Z,3.20
2022-09-16T18:09:16.689Z,3.07
2022-09-16T18:11:45.083Z,3.10
2022-09-16T18:14:14.590Z,3.70
2022-09-16T18:16:43.666Z,4.50
2022-09-16T18:19:11.442Z,4.03
2022-09-16T18:21:39.114Z,3.20
2022-09-16T18:24:12.472Z,3.60
2022-09-16T18:26:42.350Z,3.30
2022-09-16T18:29:13.925Z,3.47
2022-09-16T18:31:48.393Z,3.50
2022-09-16T18:34:17.962Z,3.57
2022-09-16T18:36:46.095Z,3.37
2022-09-16T18:39:17.398Z,4.27
2022-09-16T18:41:46.906Z,5.43
2022-09-16T18:44:25.186Z,5.83
2022-09-16T18:46:53.800Z,7.93
2022-09-16T18:49:26.497Z,7.10
2022-09-16T18:51:54.894Z,6.17
2022-09-16T18:54:29.606Z,4.20
2022-09-16T18:57:01.381Z,4.20
2022-09-16T18:59:34.230Z,3.50
2022-09-16T19:02:05.572Z,3.50
2022-09-16T19:04:41.876Z,4.03
2022-09-16T19:07:14.655Z,4.07
2022-09-16T19:09:42.648Z,3.50
2022-09-16T19:12:13.641Z,3.17
2022-09-16T19:14:41.805Z,3.20
2022-09-16T19:17:09.880Z,3.20
2022-09-16T19:19:37.877Z,2.63
2022-09-16T19:22:06.175Z,3.53
2022-09-16T19:24:34.525Z,3.13
2022-09-16T19:27:02.466Z,2.90
2022-09-16T19:29:30.513Z,3.70
2022-09-16T19:32:02.207Z,3.00
2022-09-16T19:34:30.082Z,3.67
2022-09-16T19:36:58.038Z,3.00
2022-09-16T19:39:27.204Z,3.07
2022-09-16T19:41:55.005Z,3.40
2022-09-16T19:44:22.744Z,2.80
2022-09-16T19:46:50.790Z,2.50
2022-09-16T19:49:23.121Z,2.60
2022-09-16T19:51:55.211Z,3.37
2022-09-16T19:54:24.362Z,2.00
2022-09-16T19:56:52.766Z,3.20
2022-09-16T19:59:22.295Z,2.77
2022-09-16T20:01:50.738Z,3.20
2022-09-16T20:04:21.436Z,2.90
2022-09-16T20:06:50.196Z,4.83
2022-09-16T20:09:19.995Z,2.60
2022-09-16T20:11:49.648Z,2.67
2022-09-16T20:14:21.821Z,2.50
2022-09-16T20:16:52.183Z,2.67
2022-09-16T20:19:21.552Z,4.20
2022-09-16T20:21:49.833Z,2.30
2022-09-16T20:24:24.637Z,2.33
2022-09-16T20:26:57.432Z,2.03
2022-09-16T20:29:25.238Z,2.13
2022-09-16T20:31:54.041Z,3.40
2022-09-16T20:34:24.369Z,1.90
2022-09-16T20:36:52.395Z,2.63
2022-09-16T20:39:23.081Z,2.10
2022-09-16T20:41:54.195Z,2.90
2022-09-16T20:44:22.725Z,3.13
2022-09-16T20:46:50.419Z,3.40
2022-09-16T20:49:23.085Z,3.07
2022-09-16T20:51:51.789Z,3.83
2022-09-16T20:54:20.112Z,4.50
2022-09-16T20:56:48.687Z,5.47
2022-09-16T20:59:20.310Z,5.20
2022-09-16T21:01:49.534Z,5.47
2022-09-16T21:04:20.978Z,6.27
2022-09-16T21:06:48.870Z,4.93
2022-09-16T21:09:19.226Z,5.00
2022-09-16T21:11:48.373Z,5.57
2022-09-16T21:14:18.353Z,4.10
2022-09-16T21:16:47.138Z,4.90
2022-09-16T21:19:16.834Z,5.00
2022-09-16T21:21:48.631Z,3.80
2022-09-16T21:24:17.631Z,3.73
2022-09-16T21:26:46.410Z,4.13
2022-09-16T21:29:21.244Z,4.43
2022-09-16T21:31:49.727Z,4.90
2022-09-16T21:34:21.758Z,4.90
2022-09-16T21:36:51.962Z,4.93
2022-09-16T21:39:21.932Z,4.90
2022-09-16T21:41:49.661Z,4.20
2022-09-16T21:44:18.577Z,3.93
2022-09-16T21:46:48.008Z,3.17
2022-09-16T21:49:25.932Z,3.17
2022-09-16T21:51:59.181Z,3.27
2022-09-16T21:54:28.754Z,3.40
2022-09-16T21:56:56.398Z,3.27
2022-09-16T21:59:24.768Z,3.27
2022-09-16T22:01:53.170Z,3.03
2022-09-16T22:04:25.675Z,2.90
2022-09-16T22:06:55.720Z,2.57
2022-09-16T22:09:23.894Z,1.97
2022-09-16T22:11:52.128Z,3.40
2022-09-16T22:14:19.944Z,3.13
2022-09-16T22:16:47.526Z,2.70
2022-09-16T22:19:19.410Z,3.47
2022-09-16T22:21:51.392Z,2.60
2022-09-16T22:24:21.629Z,3.00
2022-09-16T22:26:51.949Z,3.13
2022-09-16T22:29:20.476Z,2.57
2022-09-16T22:31:48.373Z,3.07
2022-09-16T22:34:16.517Z,2.40
2022-09-16T22:36:44.207Z,2.40
2022-09-16T22:39:19.595Z,2.97
2022-09-16T22:41:48.145Z,2.63
2022-09-16T22:44:15.881Z,2.77
2022-09-16T22:46:48.740Z,2.83
2022-09-16T22:49:17.125Z,3.20
2022-09-16T22:51:45.379Z,2.93
2022-09-16T22:54:15.883Z,3.30
2022-09-16T22:56:44.829Z,2.97
2022-09-16T22:59:20.709Z,4.40
2022-09-16T23:01:49.271Z,3.10
2022-09-16T23:04:18.405Z,3.97
2022-09-16T23:06:46.894Z,4.03
2022-09-16T23:09:15.361Z,4.07
2022-09-16T23:11:43.913Z,3.03
2022-09-16T23:14:21.910Z,3.60
2022-09-16T23:16:49.547Z,3.53
2022-09-16T23:19:18.006Z,3.33
2022-09-16T23:21:46.881Z,3.53
2022-09-16T23:24:20.635Z,3.97
2022-09-16T23:26:49.562Z,4.10
2022-09-16T23:29:18.604Z,3.73
2022-09-16T23:31:46.650Z,4.17
2022-09-16T23:34:22.258Z,3.70
2022-09-16T23:36:50.645Z,4.50
2022-09-16T23:39:19.442Z,4.13
2022-09-16T23:41:49.422Z,4.20
2022-09-16T23:44:17.715Z,3.40
2022-09-16T23:46:46.065Z,3.87
2022-09-16T23:49:17.223Z,4.03
2022-09-16T23:51:45.714Z,3.40
2022-09-16T23:54:14.539Z,3.90
2022-09-16T23:56:43.212Z,3.77
2022-09-16T23:59:10.949Z,3.37
